Robertsville, Arkansas
Current Conditions -  °F | °C
As of 10:53 PM on Saturday 22 Nov 2014 (Local Time) from KRUE Reporting Station
Few Clouds Few Clouds  
Wind Chill: 55°   Ceiling: Unl
Heat Index: 55°   Visibility: 9mi
Dew Point: 52°   Wind: 6mph
Humidity: 89%   Direction: NA
Pressure: 29.83"   Gusts: NA
Location:  35.2814°N, 92.791°W
Report Text: KRUE 230453Z AUTO VRB05KT 9SM FEW030 13/11 A2983 RMK AO2 SLP098 T01280111
Loading
Personal Weather Stations






























Interactive Weather Map New forecast layout! Learn more

10-Day Weather Forecast

Advertisements
Track Severe Weather on mobile